Time;durP1;ratioP1;P1;durP2;ratioP2;P2;SDS_P1;SDS_P2;PMS_P1;PMS_P2;Temp;Humidity;BMP_temperature;BMP_pressure;BME280_temperature;BME280_humidity;BME280_pressure;Samples;Min_cycle;Max_cycle;Signal;HPM_P1;HPM_P2
2024/04/07 00:00:04;;;;;;;32.35;19.45;;;;;;;;;;1805463;79;25288;-65
2024/04/07 00:02:31;;;;;;;34.90;19.85;;;;;;;;;;1805680;79;25595;-65
2024/04/07 00:05:01;;;;;;;33.23;19.50;;;;;;;;;;1805478;79;25490;-65
2024/04/07 00:07:27;;;;;;;31.87;20.88;;;;;;;;;;1805498;79;27519;-65
2024/04/07 00:09:54;;;;;;;37.38;22.25;;;;;;;;;;1797906;79;25478;-64
2024/04/07 00:12:22;;;;;;;37.65;20.62;;;;;;;;;;1792320;79;25538;-65
2024/04/07 00:14:49;;;;;;;37.13;20.75;;;;;;;;;;1791738;80;25522;-65
2024/04/07 00:17:16;;;;;;;39.05;21.70;;;;;;;;;;1792478;79;27091;-65
2024/04/07 00:19:46;;;;;;;44.80;22.25;;;;;;;;;;1792277;80;27311;-65
2024/04/07 00:22:13;;;;;;;48.40;28.65;;;;;;;;;;1792407;79;25505;-65
2024/04/07 00:24:40;;;;;;;95.60;87.22;;;;;;;;;;1763751;79;25512;-65
2024/04/07 00:27:07;;;;;;;95.45;86.95;;;;;;;;;;1792289;80;25503;-65
2024/04/07 00:29:33;;;;;;;94.20;85.03;;;;;;;;;;1792529;79;25317;-65
2024/04/07 00:32:00;;;;;;;94.07;85.53;;;;;;;;;;1792327;80;27254;-65
2024/04/07 00:34:27;;;;;;;91.83;82.63;;;;;;;;;;1792423;80;25566;-65
2024/04/07 00:36:54;;;;;;;94.37;84.93;;;;;;;;;;1792268;79;25515;-65
2024/04/07 00:39:21;;;;;;;90.60;81.13;;;;;;;;;;1792448;79;25510;-65
2024/04/07 00:41:48;;;;;;;90.72;81.67;;;;;;;;;;1792495;79;25282;-65
2024/04/07 00:44:15;;;;;;;93.63;84.60;;;;;;;;;;1792299;80;27262;-65
2024/04/07 00:46:42;;;;;;;87.17;78.33;;;;;;;;;;1792207;79;25266;-64
2024/04/07 00:49:09;;;;;;;93.67;83.87;;;;;;;;;;1792303;80;25476;-65
2024/04/07 00:51:37;;;;;;;94.50;85.57;;;;;;;;;;1792436;79;25536;-64
2024/04/07 00:54:04;;;;;;;94.30;85.23;;;;;;;;;;1792390;80;25456;-64
2024/04/07 00:56:33;;;;;;;72.60;65.33;;;;;;;;;;1792433;79;27777;-65
2024/04/07 00:59:02;;;;;;;62.45;56.05;;;;;;;;;;1792532;79;34523;-65
2024/04/07 01:01:29;;;;;;;70.20;63.93;;;;;;;;;;1792423;79;25500;-65
2024/04/07 01:03:56;;;;;;;93.67;83.60;;;;;;;;;;1770133;79;25533;-65
2024/04/07 01:06:24;;;;;;;106.77;92.57;;;;;;;;;;1792067;79;25373;-65
2024/04/07 01:08:53;;;;;;;97.92;72.22;;;;;;;;;;1792413;79;27881;-65
2024/04/07 01:11:28;;;;;;;51.23;30.12;;;;;;;;;;1805406;79;25537;-65
2024/04/07 01:13:56;;;;;;;50.12;30.25;;;;;;;;;;1805429;78;25541;-65
2024/04/07 01:16:23;;;;;;;49.83;31.68;;;;;;;;;;1805435;78;25535;-65
2024/04/07 01:18:50;;;;;;;52.10;32.93;;;;;;;;;;1805193;79;25518;-65
2024/04/07 01:21:17;;;;;;;57.98;32.28;;;;;;;;;;1805383;79;27935;-65
2024/04/07 01:23:44;;;;;;;50.78;30.05;;;;;;;;;;1805273;79;25298;-65
2024/04/07 01:26:11;;;;;;;52.27;30.80;;;;;;;;;;1805514;78;25376;-65
2024/04/07 01:28:38;;;;;;;53.10;29.35;;;;;;;;;;1805485;78;25874;-65
2024/04/07 01:31:05;;;;;;;46.05;29.67;;;;;;;;;;1805660;78;25466;-65
2024/04/07 01:33:32;;;;;;;53.78;31.42;;;;;;;;;;1804893;79;27816;-65
2024/04/07 01:35:59;;;;;;;52.50;31.70;;;;;;;;;;1803731;79;25342;-65
2024/04/07 01:38:26;;;;;;;12.80;12.13;;;;;;;;;;1805672;78;25392;-65
2024/04/07 01:40:53;;;;;;;98.77;88.60;;;;;;;;;;1805376;78;25327;-65
2024/04/07 01:43:20;;;;;;;6.28;6.03;;;;;;;;;;1804830;79;25294;-65
2024/04/07 01:45:47;;;;;;;70.73;62.23;;;;;;;;;;1805181;79;27230;-64
2024/04/07 01:48:13;;;;;;;108.70;96.97;;;;;;;;;;1803970;79;25369;-64
2024/04/07 01:50:40;;;;;;;105.03;93.87;;;;;;;;;;1805422;78;25269;-64
2024/04/07 01:53:08;;;;;;;102.57;91.67;;;;;;;;;;1804269;79;25715;-64
2024/04/07 01:55:36;;;;;;;8.15;7.75;;;;;;;;;;1805584;78;25345;-65
2024/04/07 01:58:03;;;;;;;4.93;4.73;;;;;;;;;;1805469;78;29385;-64
2024/04/07 02:00:30;;;;;;;10.13;9.47;;;;;;;;;;1805260;78;25406;-64
2024/04/07 02:02:58;;;;;;;7.17;6.80;;;;;;;;;;1805385;78;25447;-64
2024/04/07 02:05:25;;;;;;;6.63;6.33;;;;;;;;;;1804320;78;25665;-64
2024/04/07 02:07:52;;;;;;;10.30;9.90;;;;;;;;;;1804384;78;25538;-65
2024/04/07 02:10:19;;;;;;;42.77;40.37;;;;;;;;;;1805728;78;27298;-65
2024/04/07 02:12:46;;;;;;;5.43;5.23;;;;;;;;;;1805087;78;25512;-64
2024/04/07 02:15:13;;;;;;;5.23;5.03;;;;;;;;;;1805225;78;25282;-64
2024/04/07 02:17:40;;;;;;;8.47;8.00;;;;;;;;;;1805315;78;25434;-64
2024/04/07 02:20:09;;;;;;;5.97;5.70;;;;;;;;;;1805530;78;25334;-64
2024/04/07 02:22:37;;;;;;;;;;;;;;;;;;1808347;78;27209;-64
2024/04/07 02:25:06;;;;;;;21.73;20.53;;;;;;;;;;1805257;79;25774;-64
2024/04/07 02:27:33;;;;;;;15.87;14.90;;;;;;;;;;1805369;78;25302;-64
2024/04/07 02:30:04;;;;;;;10.60;9.70;;;;;;;;;;1805442;78;26064;-64
2024/04/07 02:32:32;;;;;;;7.50;7.10;;;;;;;;;;1805365;78;25269;-64
2024/04/07 02:34:59;;;;;;;15.40;14.50;;;;;;;;;;1805490;78;27203;-64
2024/04/07 02:37:26;;;;;;;7.07;6.73;;;;;;;;;;1804979;79;25574;-64
2024/04/07 02:39:53;;;;;;;9.37;8.97;;;;;;;;;;1805439;78;25303;-65
2024/04/07 02:42:21;;;;;;;6.73;6.40;;;;;;;;;;1805063;79;25665;-64
2024/04/07 02:50:19;;;;;;;14.60;13.40;;;;;;;;;;1805436;78;25472;-63
2024/04/07 02:52:46;;;;;;;15.60;14.53;;;;;;;;;;1805451;79;25487;-63
2024/04/07 02:55:14;;;;;;;7.77;7.37;;;;;;;;;;1805551;78;25508;-63
2024/04/07 02:57:41;;;;;;;17.55;16.48;;;;;;;;;;1805581;79;33229;-63
2024/04/07 03:00:13;;;;;;;20.20;18.80;;;;;;;;;;1805486;78;27257;-63
2024/04/07 03:02:43;;;;;;;7.47;7.10;;;;;;;;;;1805550;78;25345;-63
2024/04/07 03:05:12;;;;;;;14.20;13.37;;;;;;;;;;1805536;78;25308;-64
2024/04/07 03:07:40;;;;;;;8.00;7.60;;;;;;;;;;1805078;78;25381;-64
2024/04/07 03:10:07;;;;;;;6.93;6.53;;;;;;;;;;1805371;79;25276;-64
2024/04/07 03:12:35;;;;;;;11.73;11.13;;;;;;;;;;1805694;78;27208;-64
2024/04/07 03:15:05;;;;;;;9.05;8.55;;;;;;;;;;1805957;78;29585;-64
2024/04/07 03:17:32;;;;;;;43.33;27.10;;;;;;;;;;1805881;78;25535;-64
2024/04/07 03:20:00;;;;;;;48.13;30.10;;;;;;;;;;1805839;78;25981;-64
2024/04/07 03:22:27;;;;;;;42.58;28.02;;;;;;;;;;1805992;78;25357;-64
2024/04/07 03:24:55;;;;;;;101.13;91.27;;;;;;;;;;1805466;79;27193;-64
2024/04/07 03:27:23;;;;;;;83.13;74.93;;;;;;;;;;1805638;78;25703;-64
2024/04/07 03:29:50;;;;;;;49.70;31.47;;;;;;;;;;1805336;78;25457;-64
2024/04/07 03:32:17;;;;;;;51.30;30.95;;;;;;;;;;1805439;79;25859;-64
2024/04/07 03:34:44;;;;;;;53.10;33.38;;;;;;;;;;1805422;79;25545;-64
2024/04/07 03:37:11;;;;;;;59.63;37.35;;;;;;;;;;1805038;79;27284;-64
2024/04/07 03:39:37;;;;;;;48.25;32.95;;;;;;;;;;1805634;78;25266;-64
2024/04/07 03:42:06;;;;;;;50.52;34.03;;;;;;;;;;1805637;78;25557;-64
2024/04/07 03:44:34;;;;;;;51.45;32.30;;;;;;;;;;1805428;78;25476;-64
2024/04/07 03:47:01;;;;;;;50.30;33.02;;;;;;;;;;1805579;78;25317;-64
2024/04/07 03:49:29;;;;;;;53.70;35.48;;;;;;;;;;1805677;78;27191;-64
2024/04/07 03:51:56;;;;;;;54.90;33.88;;;;;;;;;;1805453;78;25482;-64
2024/04/07 03:54:23;;;;;;;51.48;31.60;;;;;;;;;;1805496;78;25354;-64
2024/04/07 03:56:50;;;;;;;50.83;35.15;;;;;;;;;;1805400;79;25371;-64
2024/04/07 03:59:17;;;;;;;57.65;37.28;;;;;;;;;;1805465;78;25274;-64
2024/04/07 04:01:47;;;;;;;63.28;43.08;;;;;;;;;;1805463;78;27324;-64
2024/04/07 04:04:16;;;;;;;71.90;43.63;;;;;;;;;;1805329;78;25667;-64
2024/04/07 04:06:42;;;;;;;70.85;45.48;;;;;;;;;;1805945;78;25459;-64
2024/04/07 04:09:09;;;;;;;78.87;47.08;;;;;;;;;;1804904;79;25435;-64
2024/04/07 04:11:37;;;;;;;79.32;47.45;;;;;;;;;;1805317;78;25407;-64
2024/04/07 04:14:04;;;;;;;83.20;52.48;;;;;;;;;;1805915;78;27258;-64
2024/04/07 04:16:31;;;;;;;80.62;53.85;;;;;;;;;;1805410;78;25487;-64
2024/04/07 04:18:58;;;;;;;55.83;36.90;;;;;;;;;;1757728;79;25492;-64
2024/04/07 04:21:25;;;;;;;60.80;36.70;;;;;;;;;;1805990;78;25480;-64
2024/04/07 04:23:53;;;;;;;43.52;30.95;;;;;;;;;;1805591;79;25290;-64
2024/04/07 04:26:21;;;;;;;44.93;29.92;;;;;;;;;;1805518;78;27239;-64
2024/04/07 04:28:50;;;;;;;;;;;;;;;;;;1808222;78;25491;-64
2024/04/07 04:31:17;;;;;;;40.43;27.22;;;;;;;;;;1805627;79;25299;-64
2024/04/07 04:33:44;;;;;;;47.03;28.87;;;;;;;;;;1806015;78;25440;-64
2024/04/07 04:36:16;;;;;;;40.35;26.60;;;;;;;;;;1805524;78;25484;-64
2024/04/07 04:38:43;;;;;;;38.75;25.25;;;;;;;;;;1805820;78;27199;-64
2024/04/07 04:41:10;;;;;;;41.23;28.70;;;;;;;;;;1805088;79;25486;-64
2024/04/07 04:43:37;;;;;;;45.45;28.92;;;;;;;;;;1805419;79;25462;-64
2024/04/07 04:46:09;;;;;;;45.30;29.42;;;;;;;;;;1805393;78;25330;-64
2024/04/07 04:48:38;;;;;;;42.73;27.55;;;;;;;;;;1805737;78;25298;-65
2024/04/07 04:51:06;;;;;;;48.58;26.33;;;;;;;;;;1805447;78;27200;-65
2024/04/07 04:53:34;;;;;;;44.48;29.15;;;;;;;;;;1805035;79;25672;-65
2024/04/07 04:56:04;;;;;;;43.78;30.97;;;;;;;;;;1805027;78;25325;-64
2024/04/07 04:58:33;;;;;;;49.38;29.75;;;;;;;;;;1805338;78;25960;-64
2024/04/07 05:01:13;;;;;;;43.92;28.70;;;;;;;;;;1805874;78;25512;-64
2024/04/07 05:03:40;;;;;;;42.05;28.27;;;;;;;;;;1805678;78;28166;-64
2024/04/07 05:06:11;;;;;;;50.92;29.77;;;;;;;;;;1805225;78;25902;-64
2024/04/07 05:08:40;;;;;;;43.35;26.95;;;;;;;;;;1805558;78;25328;-64
2024/04/07 05:11:10;;;;;;;41.95;26.95;;;;;;;;;;1804813;79;25757;-63
2024/04/07 05:13:38;;;;;;;46.42;28.45;;;;;;;;;;1805484;78;25300;-63
2024/04/07 05:16:07;;;;;;;44.48;29.55;;;;;;;;;;1805387;78;27363;-64
2024/04/07 05:18:35;;;;;;;43.78;30.27;;;;;;;;;;1805432;78;25488;-64
2024/04/07 05:21:07;;;;;;;44.33;30.80;;;;;;;;;;1805698;78;25478;-64
2024/04/07 05:23:44;;;;;;;47.03;28.90;;;;;;;;;;1805548;78;25597;-64
2024/04/07 05:26:19;;;;;;;41.28;27.80;;;;;;;;;;1805371;78;25361;-63
2024/04/07 05:28:46;;;;;;;41.55;28.32;;;;;;;;;;1805419;78;27212;-64
2024/04/07 05:31:15;;;;;;;40.20;24.70;;;;;;;;;;1805227;79;25258;-64
2024/04/07 05:33:47;;;;;;;40.03;27.22;;;;;;;;;;1805376;79;25453;-64
2024/04/07 05:36:15;;;;;;;46.95;24.82;;;;;;;;;;1805452;78;25510;-65
2024/04/07 05:38:45;;;;;;;39.90;27.32;;;;;;;;;;1805389;78;25362;-65
2024/04/07 05:41:12;;;;;;;95.47;87.27;;;;;;;;;;1805700;78;27266;-65
2024/04/07 05:43:40;;;;;;;91.37;83.22;;;;;;;;;;1805289;78;25271;-65
2024/04/07 05:46:09;;;;;;;93.15;85.38;;;;;;;;;;1804977;78;25264;-65
2024/04/07 05:48:36;;;;;;;92.97;84.42;;;;;;;;;;1805496;78;25455;-64
2024/04/07 05:51:08;;;;;;;95.20;85.72;;;;;;;;;;1805199;78;25290;-65
2024/04/07 05:53:35;;;;;;;89.20;81.03;;;;;;;;;;1803892;79;27809;-65
2024/04/07 05:56:03;;;;;;;91.20;82.80;;;;;;;;;;1805168;78;25261;-65
2024/04/07 05:58:32;;;;;;;91.65;83.78;;;;;;;;;;1805000;79;25292;-65
2024/04/07 06:01:00;;;;;;;93.37;84.15;;;;;;;;;;1805879;78;25767;-65
2024/04/07 06:03:27;;;;;;;92.37;83.07;;;;;;;;;;1805565;79;25294;-65
2024/04/07 06:05:54;;;;;;;87.53;79.62;;;;;;;;;;1805548;78;27270;-65
2024/04/07 06:08:21;;;;;;;90.38;82.33;;;;;;;;;;1805439;78;25576;-65
2024/04/07 06:10:48;;;;;;;93.30;85.32;;;;;;;;;;1806272;78;25276;-65
2024/04/07 06:13:15;;;;;;;90.87;82.37;;;;;;;;;;1805586;78;25365;-65
2024/04/07 06:15:42;;;;;;;90.60;82.50;;;;;;;;;;1805828;78;25603;-65
2024/04/07 06:18:10;;;;;;;85.53;78.05;;;;;;;;;;1805186;79;29556;-65
2024/04/07 06:20:39;;;;;;;89.17;82.02;;;;;;;;;;1805329;78;25277;-65
2024/04/07 06:23:06;;;;;;;87.20;80.03;;;;;;;;;;1805513;78;25340;-65
2024/04/07 06:25:33;;;;;;;81.02;74.37;;;;;;;;;;1805319;79;25446;-65
2024/04/07 06:28:00;;;;;;;81.32;74.03;;;;;;;;;;1805383;78;25358;-65
2024/04/07 06:30:27;;;;;;;80.30;73.85;;;;;;;;;;1805250;79;27235;-65
2024/04/07 06:32:55;;;;;;;80.12;73.67;;;;;;;;;;1805650;78;25278;-65
2024/04/07 06:35:23;;;;;;;81.57;75.40;;;;;;;;;;1805643;78;25518;-65
2024/04/07 06:37:49;;;;;;;78.28;71.50;;;;;;;;;;1804903;79;25343;-65
2024/04/07 06:40:16;;;;;;;77.12;71.00;;;;;;;;;;1805298;79;25450;-65
2024/04/07 06:42:43;;;;;;;84.95;77.95;;;;;;;;;;1805314;79;27816;-65
2024/04/07 06:45:10;;;;;;;77.67;71.57;;;;;;;;;;1805158;79;25575;-65
2024/04/07 06:47:37;;;;;;;81.32;74.72;;;;;;;;;;1805125;79;25415;-65
2024/04/07 06:50:06;;;;;;;73.15;67.70;;;;;;;;;;1805841;78;25430;-65
2024/04/07 06:52:33;;;;;;;17.25;9.20;;;;;;;;;;1804552;79;25451;-65
2024/04/07 06:55:01;;;;;;;14.23;8.33;;;;;;;;;;1805170;79;27239;-65
2024/04/07 06:57:28;;;;;;;12.53;7.75;;;;;;;;;;1805841;78;25449;-65
2024/04/07 06:59:55;;;;;;;14.73;7.30;;;;;;;;;;1805468;78;25464;-65
2024/04/07 07:02:23;;;;;;;16.97;7.20;;;;;;;;;;1805414;78;25459;-65
2024/04/07 07:04:50;;;;;;;13.13;6.65;;;;;;;;;;1805329;79;25305;-65
2024/04/07 07:07:17;;;;;;;12.82;7.37;;;;;;;;;;1805458;78;27258;-65
2024/04/07 07:09:45;;;;;;;11.20;6.72;;;;;;;;;;1805241;78;25303;-64
2024/04/07 07:12:12;;;;;;;11.73;6.03;;;;;;;;;;1805759;78;25455;-65
2024/04/07 07:14:39;;;;;;;8.70;5.60;;;;;;;;;;1805388;78;25491;-64
2024/04/07 07:17:07;;;;;;;9.28;5.55;;;;;;;;;;1805399;78;25510;-65
2024/04/07 07:19:34;;;;;;;9.48;5.47;;;;;;;;;;1805555;78;27870;-65
2024/04/07 07:22:01;;;;;;;13.38;5.85;;;;;;;;;;1805223;79;25362;-65
2024/04/07 07:24:28;;;;;;;11.85;5.58;;;;;;;;;;1807739;79;25515;-65
2024/04/07 07:26:55;;;;;;;6.08;4.83;;;;;;;;;;1805307;78;25508;-66
2024/04/07 07:29:22;;;;;;;8.25;4.92;;;;;;;;;;1805466;79;25504;-66
2024/04/07 07:31:50;;;;;;;9.80;4.37;;;;;;;;;;1804524;79;27310;-66
2024/04/07 07:34:18;;;;;;;;;;;;;;;;;;1807961;78;25294;-65
2024/04/07 07:36:45;;;;;;;40.83;37.88;;;;;;;;;;1805435;79;25465;-65
2024/04/07 07:39:13;;;;;;;9.90;3.83;;;;;;;;;;1805410;78;25484;-65
2024/04/07 07:41:42;;;;;;;6.37;4.17;;;;;;;;;;1805188;78;25283;-65
2024/04/07 07:44:09;;;;;;;7.10;4.17;;;;;;;;;;1805189;79;27349;-64
2024/04/07 07:46:36;;;;;;;9.65;3.98;;;;;;;;;;1805427;78;25447;-64
2024/04/07 07:49:05;;;;;;;5.97;4.00;;;;;;;;;;1805759;78;25487;-65
2024/04/07 07:51:34;;;;;;;5.53;3.12;;;;;;;;;;1805482;78;25514;-64
2024/04/07 07:54:01;;;;;;;6.43;3.37;;;;;;;;;;1805934;78;25277;-64
2024/04/07 07:56:28;;;;;;;8.05;3.85;;;;;;;;;;1805035;79;27362;-64
2024/04/07 07:58:55;;;;;;;7.78;4.28;;;;;;;;;;1805362;78;25432;-64
2024/04/07 08:01:22;;;;;;;9.28;3.62;;;;;;;;;;1805314;78;25440;-64
2024/04/07 08:03:48;;;;;;;9.23;3.40;;;;;;;;;;1805165;79;25456;-64
2024/04/07 08:06:15;;;;;;;5.22;3.10;;;;;;;;;;1805480;78;25290;-65
2024/04/07 08:08:43;;;;;;;10.70;4.40;;;;;;;;;;1804912;78;27766;-65
2024/04/07 08:11:11;;;;;;;60.15;56.35;;;;;;;;;;1805517;78;32780;-65
2024/04/07 08:13:38;;;;;;;8.23;3.65;;;;;;;;;;1805399;79;25423;-65
2024/04/07 08:16:07;;;;;;;55.10;51.45;;;;;;;;;;1805393;79;25730;-64
2024/04/07 08:18:36;;;;;;;71.35;67.05;;;;;;;;;;1805495;79;25456;-65
2024/04/07 08:21:05;;;;;;;70.55;66.02;;;;;;;;;;1805559;79;28171;-65
2024/04/07 08:23:33;;;;;;;70.15;65.97;;;;;;;;;;1805318;78;25539;-64
2024/04/07 08:26:00;;;;;;;71.40;67.15;;;;;;;;;;1805397;79;25520;-65
2024/04/07 08:28:29;;;;;;;74.40;69.77;;;;;;;;;;1805343;79;25422;-64
2024/04/07 08:30:57;;;;;;;72.55;68.15;;;;;;;;;;1805480;79;32844;-64
2024/04/07 08:33:25;;;;;;;69.75;65.67;;;;;;;;;;1805561;79;28074;-65
2024/04/07 08:35:51;;;;;;;72.05;67.75;;;;;;;;;;1782211;80;25516;-66
2024/04/07 10:41:04;;;;;;;7.58;2.92;;;;;;;24.76;43.71;100669.61;1868324;76;25487;-61
2024/04/07 10:43:30;;;;;;;4.67;3.52;;;;;;;24.90;43.03;100657.72;1824520;77;25371;-58
2024/04/07 10:45:59;;;;;;;4.45;2.75;;;;;;;24.93;42.39;100657.53;1824453;78;28100;-60
2024/04/07 10:48:25;;;;;;;;;;;;;;;24.98;41.66;100646.84;1827101;78;25428;-58
2024/04/07 10:55:54;;;;;;;9.70;9.23;;;;;;;25.40;42.58;100656.02;1925051;74;26053;-62
2024/04/07 10:58:21;;;;;;;6.00;5.67;;;;;;;;;;1895010;75;25523;-65
